sensor_id;sensor_type;location;lat;lon;timestamp;P1;durP1;ratioP1;P2;durP2;ratioP2
83176;SDS011;73074;52.006;4.704;2023-12-04T00:00:53;13.50;;;5.07;;
83176;SDS011;73074;52.006;4.704;2023-12-04T00:06:23;14.13;;;4.93;;
83176;SDS011;73074;52.006;4.704;2023-12-04T00:22:09;15.60;;;5.95;;
83176;SDS011;73074;52.006;4.704;2023-12-04T00:27:17;12.25;;;5.82;;
83176;SDS011;73074;52.006;4.704;2023-12-04T00:32:31;12.32;;;5.78;;
83176;SDS011;73074;52.006;4.704;2023-12-04T00:37:37;11.52;;;3.97;;
83176;SDS011;73074;52.006;4.704;2023-12-04T00:42:48;12.02;;;5.72;;
83176;SDS011;73074;52.006;4.704;2023-12-04T00:47:58;15.13;;;5.53;;
83176;SDS011;73074;52.006;4.704;2023-12-04T00:53:12;10.32;;;4.65;;
83176;SDS011;73074;52.006;4.704;2023-12-04T00:58:18;10.32;;;4.50;;
83176;SDS011;73074;52.006;4.704;2023-12-04T01:03:21;12.38;;;5.72;;
83176;SDS011;73074;52.006;4.704;2023-12-04T01:08:31;17.63;;;5.88;;
83176;SDS011;73074;52.006;4.704;2023-12-04T01:13:47;8.55;;;4.13;;
83176;SDS011;73074;52.006;4.704;2023-12-04T01:24:15;10.93;;;5.07;;
83176;SDS011;73074;52.006;4.704;2023-12-04T01:29:18;10.35;;;5.35;;
83176;SDS011;73074;52.006;4.704;2023-12-04T01:34:39;12.25;;;4.70;;
83176;SDS011;73074;52.006;4.704;2023-12-04T01:39:48;12.32;;;4.97;;
83176;SDS011;73074;52.006;4.704;2023-12-04T01:45:00;10.48;;;4.80;;
83176;SDS011;73074;52.006;4.704;2023-12-04T01:50:02;11.15;;;4.57;;
83176;SDS011;73074;52.006;4.704;2023-12-04T01:55:09;13.07;;;5.43;;
83176;SDS011;73074;52.006;4.704;2023-12-04T02:00:24;8.25;;;4.43;;
83176;SDS011;73074;52.006;4.704;2023-12-04T02:05:51;11.35;;;5.35;;
83176;SDS011;73074;52.006;4.704;2023-12-04T02:11:05;10.60;;;5.78;;
83176;SDS011;73074;52.006;4.704;2023-12-04T02:16:16;11.82;;;4.78;;
83176;SDS011;73074;52.006;4.704;2023-12-04T02:21:32;12.07;;;4.18;;
83176;SDS011;73074;52.006;4.704;2023-12-04T02:32:33;11.55;;;4.50;;
83176;SDS011;73074;52.006;4.704;2023-12-04T02:37:43;10.93;;;4.43;;
83176;SDS011;73074;52.006;4.704;2023-12-04T02:42:58;9.65;;;4.32;;
83176;SDS011;73074;52.006;4.704;2023-12-04T02:48:00;9.27;;;4.60;;
83176;SDS011;73074;52.006;4.704;2023-12-04T02:53:05;11.38;;;5.47;;
83176;SDS011;73074;52.006;4.704;2023-12-04T03:03:18;11.90;;;5.18;;
83176;SDS011;73074;52.006;4.704;2023-12-04T03:08:19;11.40;;;4.47;;
83176;SDS011;73074;52.006;4.704;2023-12-04T03:13:26;11.73;;;4.55;;
83176;SDS011;73074;52.006;4.704;2023-12-04T03:18:44;9.93;;;4.60;;
83176;SDS011;73074;52.006;4.704;2023-12-04T03:23:51;10.50;;;4.53;;
83176;SDS011;73074;52.006;4.704;2023-12-04T03:29:00;13.05;;;4.93;;
83176;SDS011;73074;52.006;4.704;2023-12-04T03:34:07;13.98;;;5.07;;
83176;SDS011;73074;52.006;4.704;2023-12-04T03:39:09;10.68;;;4.22;;
83176;SDS011;73074;52.006;4.704;2023-12-04T03:44:24;11.18;;;4.90;;
83176;SDS011;73074;52.006;4.704;2023-12-04T03:49:31;10.35;;;4.10;;
83176;SDS011;73074;52.006;4.704;2023-12-04T04:11:25;11.35;;;5.15;;
83176;SDS011;73074;52.006;4.704;2023-12-04T04:16:37;11.57;;;5.28;;
83176;SDS011;73074;52.006;4.704;2023-12-04T04:22:00;11.80;;;4.93;;
83176;SDS011;73074;52.006;4.704;2023-12-04T04:32:50;7.53;;;3.58;;
83176;SDS011;73074;52.006;4.704;2023-12-04T04:37:58;10.13;;;4.20;;
83176;SDS011;73074;52.006;4.704;2023-12-04T04:43:15;7.95;;;4.40;;
83176;SDS011;73074;52.006;4.704;2023-12-04T04:48:20;8.70;;;4.68;;
83176;SDS011;73074;52.006;4.704;2023-12-04T04:53:41;12.18;;;3.90;;
83176;SDS011;73074;52.006;4.704;2023-12-04T04:59:00;7.22;;;3.42;;
83176;SDS011;73074;52.006;4.704;2023-12-04T05:04:01;10.13;;;4.63;;
83176;SDS011;73074;52.006;4.704;2023-12-04T05:09:10;6.10;;;2.95;;
83176;SDS011;73074;52.006;4.704;2023-12-04T05:14:27;7.78;;;3.25;;
83176;SDS011;73074;52.006;4.704;2023-12-04T05:25:29;2.05;;;1.60;;
83176;SDS011;73074;52.006;4.704;2023-12-04T05:30:46;8.27;;;4.43;;
83176;SDS011;73074;52.006;4.704;2023-12-04T05:36:18;9.52;;;4.40;;
83176;SDS011;73074;52.006;4.704;2023-12-04T05:47:28;7.85;;;3.95;;
83176;SDS011;73074;52.006;4.704;2023-12-04T05:52:44;8.35;;;3.97;;
83176;SDS011;73074;52.006;4.704;2023-12-04T06:03:59;7.95;;;4.40;;
83176;SDS011;73074;52.006;4.704;2023-12-04T06:09:22;7.60;;;3.50;;
83176;SDS011;73074;52.006;4.704;2023-12-04T06:14:51;10.18;;;4.32;;
83176;SDS011;73074;52.006;4.704;2023-12-04T06:25:20;6.47;;;3.45;;
83176;SDS011;73074;52.006;4.704;2023-12-04T06:41:00;16.23;;;8.00;;
83176;SDS011;73074;52.006;4.704;2023-12-04T06:51:37;10.15;;;5.28;;
83176;SDS011;73074;52.006;4.704;2023-12-04T06:56:42;11.05;;;4.18;;
83176;SDS011;73074;52.006;4.704;2023-12-04T07:07:10;8.32;;;3.42;;
83176;SDS011;73074;52.006;4.704;2023-12-04T07:12:19;8.95;;;3.53;;
83176;SDS011;73074;52.006;4.704;2023-12-04T07:17:21;8.48;;;4.30;;
83176;SDS011;73074;52.006;4.704;2023-12-04T07:22:32;11.73;;;4.63;;
83176;SDS011;73074;52.006;4.704;2023-12-04T07:27:33;7.68;;;3.33;;
83176;SDS011;73074;52.006;4.704;2023-12-04T07:32:35;11.43;;;5.35;;
83176;SDS011;73074;52.006;4.704;2023-12-04T07:37:36;6.55;;;3.95;;
83176;SDS011;73074;52.006;4.704;2023-12-04T07:42:45;7.32;;;3.60;;
83176;SDS011;73074;52.006;4.704;2023-12-04T07:47:46;7.35;;;4.07;;
83176;SDS011;73074;52.006;4.704;2023-12-04T07:52:53;9.13;;;4.10;;
83176;SDS011;73074;52.006;4.704;2023-12-04T07:58:11;12.57;;;5.90;;
83176;SDS011;73074;52.006;4.704;2023-12-04T08:03:22;8.65;;;3.97;;
83176;SDS011;73074;52.006;4.704;2023-12-04T08:08:24;8.65;;;4.35;;
83176;SDS011;73074;52.006;4.704;2023-12-04T08:13:27;10.88;;;5.38;;
83176;SDS011;73074;52.006;4.704;2023-12-04T08:18:28;11.07;;;6.78;;
83176;SDS011;73074;52.006;4.704;2023-12-04T08:23:35;8.25;;;4.45;;
83176;SDS011;73074;52.006;4.704;2023-12-04T08:28:44;12.48;;;4.55;;
83176;SDS011;73074;52.006;4.704;2023-12-04T08:33:49;7.70;;;4.03;;
83176;SDS011;73074;52.006;4.704;2023-12-04T08:38:52;9.40;;;4.47;;
83176;SDS011;73074;52.006;4.704;2023-12-04T08:44:01;8.07;;;4.13;;
83176;SDS011;73074;52.006;4.704;2023-12-04T08:49:02;6.53;;;3.67;;
83176;SDS011;73074;52.006;4.704;2023-12-04T08:59:47;6.35;;;3.40;;
83176;SDS011;73074;52.006;4.704;2023-12-04T09:04:58;12.63;;;5.47;;
83176;SDS011;73074;52.006;4.704;2023-12-04T09:10:16;11.45;;;5.35;;
83176;SDS011;73074;52.006;4.704;2023-12-04T09:15:33;7.53;;;4.85;;
83176;SDS011;73074;52.006;4.704;2023-12-04T09:20:35;6.25;;;3.90;;
83176;SDS011;73074;52.006;4.704;2023-12-04T09:26:03;6.55;;;3.67;;
83176;SDS011;73074;52.006;4.704;2023-12-04T09:31:10;7.18;;;3.75;;
83176;SDS011;73074;52.006;4.704;2023-12-04T09:36:23;6.07;;;3.08;;
83176;SDS011;73074;52.006;4.704;2023-12-04T09:41:30;7.32;;;3.65;;
83176;SDS011;73074;52.006;4.704;2023-12-04T09:46:32;4.43;;;2.53;;
83176;SDS011;73074;52.006;4.704;2023-12-04T10:02:44;36.45;;;12.02;;
83176;SDS011;73074;52.006;4.704;2023-12-04T10:07:49;13.02;;;7.53;;
83176;SDS011;73074;52.006;4.704;2023-12-04T10:24:00;5.15;;;3.00;;
83176;SDS011;73074;52.006;4.704;2023-12-04T10:29:10;6.38;;;3.15;;
83176;SDS011;73074;52.006;4.704;2023-12-04T10:34:11;5.93;;;3.10;;
83176;SDS011;73074;52.006;4.704;2023-12-04T10:39:14;4.30;;;2.58;;
83176;SDS011;73074;52.006;4.704;2023-12-04T10:44:21;8.68;;;3.35;;
83176;SDS011;73074;52.006;4.704;2023-12-04T10:49:56;6.90;;;3.17;;
83176;SDS011;73074;52.006;4.704;2023-12-04T10:55:14;5.28;;;2.90;;
83176;SDS011;73074;52.006;4.704;2023-12-04T11:00:29;4.88;;;2.90;;
83176;SDS011;73074;52.006;4.704;2023-12-04T11:05:38;3.40;;;2.17;;
83176;SDS011;73074;52.006;4.704;2023-12-04T11:10:46;7.53;;;3.13;;
83176;SDS011;73074;52.006;4.704;2023-12-04T11:16:09;7.40;;;3.92;;
83176;SDS011;73074;52.006;4.704;2023-12-04T11:21:15;6.55;;;3.22;;
83176;SDS011;73074;52.006;4.704;2023-12-04T11:26:20;8.52;;;3.42;;
83176;SDS011;73074;52.006;4.704;2023-12-04T11:31:45;30.73;;;11.57;;
83176;SDS011;73074;52.006;4.704;2023-12-04T11:36:46;7.53;;;3.97;;
83176;SDS011;73074;52.006;4.704;2023-12-04T11:41:54;6.38;;;3.90;;
83176;SDS011;73074;52.006;4.704;2023-12-04T11:47:03;8.25;;;4.03;;
83176;SDS011;73074;52.006;4.704;2023-12-04T11:52:10;6.50;;;3.42;;
83176;SDS011;73074;52.006;4.704;2023-12-04T12:13:49;4.97;;;3.15;;
83176;SDS011;73074;52.006;4.704;2023-12-04T12:19:01;6.63;;;3.30;;
83176;SDS011;73074;52.006;4.704;2023-12-04T12:24:11;11.57;;;3.58;;
83176;SDS011;73074;52.006;4.704;2023-12-04T12:29:24;8.50;;;3.50;;
83176;SDS011;73074;52.006;4.704;2023-12-04T12:34:30;7.95;;;3.45;;
83176;SDS011;73074;52.006;4.704;2023-12-04T12:39:56;10.85;;;6.75;;
83176;SDS011;73074;52.006;4.704;2023-12-04T12:51:13;6.90;;;3.35;;
83176;SDS011;73074;52.006;4.704;2023-12-04T12:56:20;6.47;;;4.15;;
83176;SDS011;73074;52.006;4.704;2023-12-04T13:01:24;9.60;;;4.35;;
83176;SDS011;73074;52.006;4.704;2023-12-04T13:06:36;7.47;;;4.18;;
83176;SDS011;73074;52.006;4.704;2023-12-04T13:11:40;8.43;;;4.03;;
83176;SDS011;73074;52.006;4.704;2023-12-04T13:16:42;8.40;;;4.30;;
83176;SDS011;73074;52.006;4.704;2023-12-04T13:22:04;9.10;;;4.32;;
83176;SDS011;73074;52.006;4.704;2023-12-04T13:27:09;11.02;;;4.80;;
83176;SDS011;73074;52.006;4.704;2023-12-04T13:32:10;9.38;;;4.28;;
83176;SDS011;73074;52.006;4.704;2023-12-04T13:37:11;7.10;;;4.45;;
83176;SDS011;73074;52.006;4.704;2023-12-04T13:42:15;9.70;;;4.55;;
83176;SDS011;73074;52.006;4.704;2023-12-04T13:47:17;8.25;;;4.63;;
83176;SDS011;73074;52.006;4.704;2023-12-04T13:52:34;10.20;;;4.35;;
83176;SDS011;73074;52.006;4.704;2023-12-04T13:57:45;6.18;;;3.40;;
83176;SDS011;73074;52.006;4.704;2023-12-04T14:02:48;10.73;;;4.05;;
83176;SDS011;73074;52.006;4.704;2023-12-04T14:07:49;8.27;;;4.35;;
83176;SDS011;73074;52.006;4.704;2023-12-04T14:12:50;9.70;;;4.95;;
83176;SDS011;73074;52.006;4.704;2023-12-04T14:17:51;7.80;;;4.22;;
83176;SDS011;73074;52.006;4.704;2023-12-04T14:23:02;8.98;;;5.35;;
83176;SDS011;73074;52.006;4.704;2023-12-04T14:28:20;9.80;;;4.88;;
83176;SDS011;73074;52.006;4.704;2023-12-04T14:33:26;10.00;;;5.18;;
83176;SDS011;73074;52.006;4.704;2023-12-04T14:43:54;9.98;;;5.45;;
83176;SDS011;73074;52.006;4.704;2023-12-04T14:48:56;7.75;;;4.18;;
83176;SDS011;73074;52.006;4.704;2023-12-04T14:53:57;10.02;;;4.47;;
83176;SDS011;73074;52.006;4.704;2023-12-04T14:58:58;12.93;;;6.35;;
83176;SDS011;73074;52.006;4.704;2023-12-04T15:04:01;9.43;;;4.90;;
83176;SDS011;73074;52.006;4.704;2023-12-04T15:14:36;6.30;;;3.10;;
83176;SDS011;73074;52.006;4.704;2023-12-04T15:19:40;9.93;;;5.35;;
83176;SDS011;73074;52.006;4.704;2023-12-04T15:24:44;12.95;;;5.07;;
83176;SDS011;73074;52.006;4.704;2023-12-04T15:29:56;12.77;;;4.95;;
83176;SDS011;73074;52.006;4.704;2023-12-04T15:35:07;8.23;;;5.05;;
83176;SDS011;73074;52.006;4.704;2023-12-04T15:45:17;11.93;;;5.22;;
83176;SDS011;73074;52.006;4.704;2023-12-04T15:50:39;10.77;;;5.15;;
83176;SDS011;73074;52.006;4.704;2023-12-04T15:55:40;7.32;;;4.07;;
83176;SDS011;73074;52.006;4.704;2023-12-04T16:00:53;14.27;;;5.93;;
83176;SDS011;73074;52.006;4.704;2023-12-04T16:05:54;10.68;;;5.15;;
83176;SDS011;73074;52.006;4.704;2023-12-04T16:10:55;11.25;;;5.90;;
83176;SDS011;73074;52.006;4.704;2023-12-04T16:15:56;13.00;;;6.05;;
83176;SDS011;73074;52.006;4.704;2023-12-04T16:21:00;11.52;;;5.75;;
83176;SDS011;73074;52.006;4.704;2023-12-04T16:26:05;11.32;;;5.65;;
83176;SDS011;73074;52.006;4.704;2023-12-04T16:31:06;11.35;;;6.28;;
83176;SDS011;73074;52.006;4.704;2023-12-04T16:36:20;10.85;;;6.10;;
83176;SDS011;73074;52.006;4.704;2023-12-04T16:41:21;12.82;;;6.20;;
83176;SDS011;73074;52.006;4.704;2023-12-04T16:51:46;19.17;;;9.75;;
83176;SDS011;73074;52.006;4.704;2023-12-04T16:56:47;17.67;;;7.40;;
83176;SDS011;73074;52.006;4.704;2023-12-04T17:01:56;13.18;;;7.60;;
83176;SDS011;73074;52.006;4.704;2023-12-04T17:07:15;18.20;;;8.82;;
83176;SDS011;73074;52.006;4.704;2023-12-04T17:12:18;13.90;;;7.88;;
83176;SDS011;73074;52.006;4.704;2023-12-04T17:17:27;14.55;;;7.93;;
83176;SDS011;73074;52.006;4.704;2023-12-04T17:22:32;15.57;;;9.00;;
83176;SDS011;73074;52.006;4.704;2023-12-04T17:27:46;15.05;;;8.73;;
83176;SDS011;73074;52.006;4.704;2023-12-04T17:33:02;16.08;;;8.68;;
83176;SDS011;73074;52.006;4.704;2023-12-04T17:38:09;20.42;;;10.02;;
83176;SDS011;73074;52.006;4.704;2023-12-04T17:43:22;19.13;;;10.18;;
83176;SDS011;73074;52.006;4.704;2023-12-04T17:48:23;15.70;;;9.25;;
83176;SDS011;73074;52.006;4.704;2023-12-04T17:53:26;17.80;;;9.38;;
83176;SDS011;73074;52.006;4.704;2023-12-04T17:58:27;17.65;;;9.95;;
83176;SDS011;73074;52.006;4.704;2023-12-04T18:03:28;16.35;;;9.15;;
83176;SDS011;73074;52.006;4.704;2023-12-04T18:08:29;15.75;;;9.63;;
83176;SDS011;73074;52.006;4.704;2023-12-04T18:13:38;19.00;;;8.55;;
83176;SDS011;73074;52.006;4.704;2023-12-04T18:18:49;14.70;;;8.75;;
83176;SDS011;73074;52.006;4.704;2023-12-04T18:23:51;15.55;;;8.65;;
83176;SDS011;73074;52.006;4.704;2023-12-04T18:34:25;18.27;;;9.63;;
83176;SDS011;73074;52.006;4.704;2023-12-04T18:39:26;17.77;;;9.30;;
83176;SDS011;73074;52.006;4.704;2023-12-04T18:49:55;17.35;;;9.45;;
83176;SDS011;73074;52.006;4.704;2023-12-04T18:54:57;17.13;;;9.75;;
83176;SDS011;73074;52.006;4.704;2023-12-04T18:59:59;15.45;;;9.77;;
83176;SDS011;73074;52.006;4.704;2023-12-04T19:05:03;15.35;;;8.15;;
83176;SDS011;73074;52.006;4.704;2023-12-04T19:10:23;19.30;;;11.32;;
83176;SDS011;73074;52.006;4.704;2023-12-04T19:15:36;17.00;;;9.73;;
83176;SDS011;73074;52.006;4.704;2023-12-04T19:20:38;15.70;;;9.30;;
83176;SDS011;73074;52.006;4.704;2023-12-04T19:25:42;21.60;;;10.15;;
83176;SDS011;73074;52.006;4.704;2023-12-04T19:30:42;18.85;;;10.20;;
83176;SDS011;73074;52.006;4.704;2023-12-04T19:41:29;13.75;;;7.80;;
83176;SDS011;73074;52.006;4.704;2023-12-04T19:46:44;14.95;;;8.10;;
83176;SDS011;73074;52.006;4.704;2023-12-04T19:51:50;17.58;;;9.65;;
83176;SDS011;73074;52.006;4.704;2023-12-04T19:57:13;14.57;;;9.45;;
83176;SDS011;73074;52.006;4.704;2023-12-04T20:02:33;18.42;;;9.77;;
83176;SDS011;73074;52.006;4.704;2023-12-04T20:07:57;16.05;;;8.57;;
83176;SDS011;73074;52.006;4.704;2023-12-04T20:13:05;15.27;;;8.77;;
83176;SDS011;73074;52.006;4.704;2023-12-04T20:18:14;15.38;;;9.20;;
83176;SDS011;73074;52.006;4.704;2023-12-04T20:28:44;13.57;;;8.50;;
83176;SDS011;73074;52.006;4.704;2023-12-04T20:33:45;14.13;;;7.75;;
83176;SDS011;73074;52.006;4.704;2023-12-04T20:44:05;16.98;;;8.40;;
83176;SDS011;73074;52.006;4.704;2023-12-04T20:49:13;17.38;;;8.90;;
83176;SDS011;73074;52.006;4.704;2023-12-04T20:54:19;15.57;;;8.30;;
83176;SDS011;73074;52.006;4.704;2023-12-04T20:59:25;15.52;;;8.77;;
83176;SDS011;73074;52.006;4.704;2023-12-04T21:04:31;14.65;;;8.30;;
83176;SDS011;73074;52.006;4.704;2023-12-04T21:09:35;13.98;;;8.07;;
83176;SDS011;73074;52.006;4.704;2023-12-04T21:14:47;14.63;;;6.50;;
83176;SDS011;73074;52.006;4.704;2023-12-04T21:19:52;14.40;;;7.35;;
83176;SDS011;73074;52.006;4.704;2023-12-04T21:25:08;16.13;;;7.78;;
83176;SDS011;73074;52.006;4.704;2023-12-04T21:30:11;15.60;;;9.20;;
83176;SDS011;73074;52.006;4.704;2023-12-04T21:35:23;16.23;;;8.90;;
83176;SDS011;73074;52.006;4.704;2023-12-04T21:40:38;15.15;;;8.73;;
83176;SDS011;73074;52.006;4.704;2023-12-04T21:45:39;12.68;;;7.93;;
83176;SDS011;73074;52.006;4.704;2023-12-04T21:50:41;14.90;;;7.70;;
83176;SDS011;73074;52.006;4.704;2023-12-04T21:55:54;17.42;;;8.88;;
83176;SDS011;73074;52.006;4.704;2023-12-04T22:06:33;14.43;;;8.93;;
83176;SDS011;73074;52.006;4.704;2023-12-04T22:11:53;14.85;;;8.45;;
83176;SDS011;73074;52.006;4.704;2023-12-04T22:17:18;14.98;;;7.63;;
83176;SDS011;73074;52.006;4.704;2023-12-04T22:27:27;14.10;;;8.25;;
83176;SDS011;73074;52.006;4.704;2023-12-04T22:32:36;16.02;;;8.40;;
83176;SDS011;73074;52.006;4.704;2023-12-04T22:37:37;14.23;;;8.35;;
83176;SDS011;73074;52.006;4.704;2023-12-04T22:42:44;16.52;;;8.93;;
83176;SDS011;73074;52.006;4.704;2023-12-04T22:47:47;15.98;;;9.38;;
83176;SDS011;73074;52.006;4.704;2023-12-04T22:52:48;16.85;;;8.82;;
83176;SDS011;73074;52.006;4.704;2023-12-04T22:57:53;15.57;;;9.07;;
83176;SDS011;73074;52.006;4.704;2023-12-04T23:03:08;16.85;;;8.50;;
83176;SDS011;73074;52.006;4.704;2023-12-04T23:14:27;13.68;;;8.18;;
83176;SDS011;73074;52.006;4.704;2023-12-04T23:19:42;15.80;;;8.60;;
83176;SDS011;73074;52.006;4.704;2023-12-04T23:29:56;16.25;;;8.85;;
83176;SDS011;73074;52.006;4.704;2023-12-04T23:35:04;18.27;;;9.88;;
83176;SDS011;73074;52.006;4.704;2023-12-04T23:40:09;18.05;;;10.40;;
83176;SDS011;73074;52.006;4.704;2023-12-04T23:45:11;18.20;;;10.38;;
83176;SDS011;73074;52.006;4.704;2023-12-04T23:50:18;20.33;;;11.07;;
83176;SDS011;73074;52.006;4.704;2023-12-04T23:55:23;20.60;;;10.95;;
